Time;durP1;ratioP1;P1;durP2;ratioP2;P2;SDS_P1;SDS_P2;PMS_P1;PMS_P2;Temp;Humidity;BMP_temperature;BMP_pressure;BME280_temperature;BME280_humidity;BME280_pressure;Samples;Min_cycle;Max_cycle;Signal;HPM_P1;HPM_P2
2023/01/06 00:03:27;;;;;;;4.93;2.37;;;4.00;99.90;;;;;;10447378;28;20032;-78
2023/01/06 00:08:28;;;;;;;5.10;1.40;;;3.90;99.90;;;;;;10444941;28;20033;-80
2023/01/06 00:13:28;;;;;;;4.63;1.83;;;4.00;99.90;;;;;;10446415;28;20037;-78
2023/01/06 00:18:29;;;;;;;8.83;2.50;;;3.90;99.90;;;;;;10445572;28;20033;-78
2023/01/06 00:23:30;;;;;;;4.57;1.63;;;3.90;99.90;;;;;;10445954;28;20048;-78
2023/01/06 00:28:30;;;;;;;4.63;1.53;;;3.90;99.90;;;;;;10445091;28;20524;-80
2023/01/06 00:33:31;;;;;;;4.40;1.30;;;3.80;99.90;;;;;;10444180;28;20033;-79
2023/01/06 00:38:31;;;;;;;3.77;1.80;;;3.90;99.90;;;;;;10444287;28;20037;-78
2023/01/06 00:43:32;;;;;;;5.97;2.07;;;3.90;99.90;;;;;;10445273;28;20112;-76
2023/01/06 00:48:32;;;;;;;5.33;1.73;;;3.90;99.90;;;;;;10443974;28;20037;-77
2023/01/06 00:53:33;;;;;;;5.97;2.93;;;3.90;99.90;;;;;;10444576;28;20485;-81
2023/01/06 00:58:33;;;;;;;6.33;2.67;;;3.90;99.90;;;;;;10443920;28;21055;-77
2023/01/06 01:03:36;;;;;;;4.30;2.00;;;3.90;99.90;;;;;;10443881;28;20095;-78
2023/01/06 01:08:36;;;;;;;5.33;2.53;;;3.90;99.90;;;;;;10444021;28;20063;-78
2023/01/06 01:13:37;;;;;;;5.67;3.00;;;3.90;99.90;;;;;;10444219;28;20044;-77
2023/01/06 01:18:37;;;;;;;6.10;2.90;;;3.90;99.90;;;;;;10442445;28;20029;-78
2023/01/06 01:23:38;;;;;;;7.53;2.90;;;3.90;99.90;;;;;;10443587;28;20057;-80
2023/01/06 01:28:38;;;;;;;10.00;3.10;;;4.00;99.90;;;;;;10442998;28;20067;-79
2023/01/06 01:33:39;;;;;;;11.60;3.77;;;4.00;99.90;;;;;;10442899;28;20102;-80
2023/01/06 01:38:39;;;;;;;6.53;3.10;;;4.00;99.90;;;;;;10442452;28;20032;-77
2023/01/06 01:43:47;;;;;;;7.53;2.60;;;3.90;99.90;;;;;;10443051;28;20036;-76
2023/01/06 01:48:49;;;;;;;6.83;2.90;;;3.90;99.90;;;;;;10441143;28;20059;-81
2023/01/06 01:53:52;;;;;;;11.33;3.73;;;3.80;99.90;;;;;;10442414;28;20052;-77
2023/01/06 01:59:07;;;;;;;7.53;3.07;;;3.80;99.90;;;;;;10442178;28;20033;-78
2023/01/06 02:04:09;;;;;;;12.30;3.33;;;3.80;99.90;;;;;;10441985;28;20041;-81
2023/01/06 02:09:22;;;;;;;7.60;3.53;;;3.70;99.90;;;;;;10441719;28;20029;-78
2023/01/06 02:14:26;;;;;;;11.27;3.93;;;3.70;99.90;;;;;;10440220;28;20045;-78
2023/01/06 02:19:29;;;;;;;10.10;4.17;;;3.70;99.90;;;;;;10440545;28;20783;-78
2023/01/06 02:25:14;;;;;;;14.10;4.77;;;3.60;99.90;;;;;;10440974;28;20056;-78
2023/01/06 02:30:46;;;;;;;11.23;4.93;;;3.60;99.90;;;;;;10445718;28;20025;-77
2023/01/06 02:36:01;;;;;;;11.10;4.93;;;3.60;99.90;;;;;;10437739;28;20043;-78
2023/01/06 02:41:16;;;;;;;10.88;5.32;;;3.50;99.90;;;;;;10449236;28;20033;-81
2023/01/06 02:46:20;;;;;;;13.90;6.13;;;3.50;99.90;;;;;;10449242;28;20021;-78
2023/01/06 02:51:30;;;;;;;14.27;5.77;;;3.50;99.90;;;;;;10449005;28;20028;-78
2023/01/06 02:56:36;;;;;;;19.10;6.90;;;3.50;99.90;;;;;;10448894;28;20036;-78
2023/01/06 03:01:40;;;;;;;16.70;6.63;;;3.60;99.90;;;;;;10448872;28;20036;-80
2023/01/06 03:06:44;;;;;;;18.37;7.20;;;3.60;99.90;;;;;;10448776;28;20041;-78
2023/01/06 03:11:49;;;;;;;16.73;6.70;;;3.60;99.90;;;;;;10447972;28;20051;-80
2023/01/06 03:16:49;;;;;;;13.50;7.13;;;3.70;99.90;;;;;;10447596;28;20135;-78
2023/01/06 03:21:51;;;;;;;20.03;7.33;;;3.70;99.90;;;;;;10448326;28;20064;-80
2023/01/06 03:26:52;;;;;;;13.50;6.63;;;3.70;99.90;;;;;;10448485;28;20017;-80
2023/01/06 03:32:08;;;;;;;19.47;7.50;;;3.70;99.90;;;;;;10446698;28;20486;-78
2023/01/06 03:37:39;;;;;;;18.88;7.05;;;3.70;99.90;;;;;;10445586;28;20047;-79
2023/01/06 03:43:12;;;;;;;16.93;7.00;;;3.70;99.90;;;;;;10439633;28;20213;-78
2023/01/06 03:48:27;;;;;;;14.13;6.83;;;3.70;99.90;;;;;;10445520;28;20059;-79
2023/01/06 03:54:25;;;;;;;16.13;7.30;;;3.70;99.90;;;;;;10446720;28;20041;-77
2023/01/06 03:59:29;;;;;;;18.17;8.20;;;3.70;99.90;;;;;;10382771;28;20130;-78
2023/01/06 04:04:29;;;;;;;15.87;6.63;;;3.70;99.90;;;;;;10446300;28;20025;-77
2023/01/06 04:09:30;;;;;;;19.97;7.27;;;3.70;99.90;;;;;;10446722;28;20063;-79
2023/01/06 04:14:30;;;;;;;16.07;6.77;;;3.60;99.90;;;;;;10445652;28;20559;-81
2023/01/06 04:19:31;;;;;;;16.17;7.00;;;3.60;99.90;;;;;;10441741;28;20112;-79
2023/01/06 04:24:31;;;;;;;22.03;6.73;;;3.60;99.90;;;;;;10445007;28;20048;-78
2023/01/06 04:29:32;;;;;;;17.97;8.30;;;3.60;99.90;;;;;;10443862;28;20032;-79
2023/01/06 04:34:32;;;;;;;20.07;7.63;;;3.60;99.90;;;;;;10460373;22;20061;-78
2023/01/06 04:39:33;;;;;;;20.47;8.77;;;3.60;99.90;;;;;;10450301;28;20025;-80
2023/01/06 04:44:33;;;;;;;33.40;16.90;;;3.60;99.90;;;;;;10444655;28;20041;-77
2023/01/06 04:49:34;;;;;;;29.40;15.17;;;3.60;99.90;;;;;;10445181;28;20596;-77
2023/01/06 04:54:35;;;;;;;56.07;25.97;;;3.60;99.90;;;;;;10443953;28;20098;-79
2023/01/06 04:59:36;;;;;;;31.67;14.97;;;3.60;99.90;;;;;;10452404;28;20020;-80
2023/01/06 05:04:36;;;;;;;30.57;12.07;;;3.50;99.90;;;;;;10442147;28;20041;-78
2023/01/06 05:09:37;;;;;;;30.70;13.50;;;3.40;99.90;;;;;;10442524;28;20056;-78
2023/01/06 05:14:37;;;;;;;39.50;19.40;;;3.40;99.90;;;;;;10443557;28;20037;-78
2023/01/06 05:19:40;;;;;;;47.30;20.13;;;3.40;99.90;;;;;;10442788;28;20143;-77
2023/01/06 05:24:41;;;;;;;46.83;16.43;;;3.50;99.90;;;;;;10442235;28;20033;-78
2023/01/06 05:29:41;;;;;;;47.10;20.20;;;3.50;99.90;;;;;;10443561;28;20029;-79
2023/01/06 05:34:42;;;;;;;50.90;21.77;;;3.50;99.90;;;;;;10441163;28;20083;-77
2023/01/06 05:39:42;;;;;;;41.20;17.60;;;3.50;99.90;;;;;;10431675;28;20044;-78
2023/01/06 05:44:43;;;;;;;35.10;14.10;;;3.50;99.90;;;;;;10442063;28;20025;-78
2023/01/06 05:49:43;;;;;;;36.23;14.80;;;3.50;99.90;;;;;;10441619;28;20035;-78
2023/01/06 05:54:44;;;;;;;41.90;18.87;;;3.40;99.90;;;;;;10442778;28;20116;-78
2023/01/06 05:59:44;;;;;;;41.97;18.73;;;3.30;99.90;;;;;;10441983;28;20036;-78
2023/01/06 06:04:45;;;;;;;47.20;20.17;;;3.30;99.90;;;;;;10440462;28;20020;-79
2023/01/06 06:09:46;;;;;;;41.17;18.23;;;3.20;99.90;;;;;;10441155;28;20472;-78
2023/01/06 06:14:46;;;;;;;41.13;16.33;;;3.00;99.90;;;;;;10441182;28;20037;-78
2023/01/06 06:19:47;;;;;;;34.77;14.67;;;2.90;99.90;;;;;;10440913;28;20436;-78
2023/01/06 06:24:47;;;;;;;51.17;19.33;;;2.70;99.90;;;;;;10441447;28;20105;-78
2023/01/06 06:29:48;;;;;;;49.33;22.87;;;2.40;99.90;;;;;;10441633;28;20059;-78
2023/01/06 06:34:48;;;;;;;44.73;19.23;;;2.40;99.90;;;;;;10436791;28;20095;-79
2023/01/06 06:39:49;;;;;;;50.37;19.80;;;2.30;99.90;;;;;;10441050;28;20036;-79
2023/01/06 06:44:49;;;;;;;53.53;20.73;;;2.30;99.90;;;;;;10441245;28;20488;-78
2023/01/06 06:49:50;;;;;;;42.60;17.13;;;2.30;99.90;;;;;;10441335;28;20032;-80
2023/01/06 06:54:50;;;;;;;39.30;16.87;;;2.30;99.90;;;;;;10440148;28;20041;-79
2023/01/06 06:59:51;;;;;;;40.43;17.67;;;2.30;99.90;;;;;;10440534;28;20036;-80
2023/01/06 07:04:51;;;;;;;45.60;20.10;;;2.30;99.90;;;;;;10439603;28;20041;-78
2023/01/06 07:09:52;;;;;;;60.03;23.77;;;2.50;99.90;;;;;;10437852;28;20458;-78
2023/01/06 07:14:53;;;;;;;148.57;65.77;;;2.60;99.90;;;;;;10441486;28;20063;-77
2023/01/06 07:19:53;;;;;;;147.60;68.63;;;2.70;99.90;;;;;;10448371;28;20029;-80
2023/01/06 07:24:54;;;;;;;122.00;57.00;;;2.80;99.90;;;;;;10448044;28;20025;-77
2023/01/06 07:29:54;;;;;;;92.10;41.63;;;2.90;99.90;;;;;;10446910;28;20036;-77
2023/01/06 07:34:55;;;;;;;77.67;36.13;;;3.00;99.90;;;;;;10444438;28;20061;-78
2023/01/06 07:39:55;;;;;;;73.00;35.17;;;3.10;99.90;;;;;;10446288;28;20538;-78
2023/01/06 07:44:56;;;;;;;106.03;48.93;;;3.10;99.90;;;;;;10446029;28;20025;-78
2023/01/06 07:49:56;;;;;;;84.33;39.60;;;3.10;99.90;;;;;;10446863;28;20029;-79
2023/01/06 07:55:00;;;;;;;60.00;29.80;;;3.20;99.90;;;;;;10446536;28;20403;-78
2023/01/06 08:00:00;;;;;;;66.93;36.33;;;3.30;99.90;;;;;;10446725;28;20033;-79
2023/01/06 08:05:01;;;;;;;58.30;27.13;;;3.30;99.90;;;;;;10446106;28;20045;-78
2023/01/06 08:10:02;;;;;;;76.53;32.90;;;3.40;99.90;;;;;;10445683;28;20496;-78
2023/01/06 08:15:03;;;;;;;54.60;23.63;;;3.40;99.90;;;;;;10443711;28;20041;-78
2023/01/06 08:20:04;;;;;;;52.23;24.57;;;3.50;99.90;;;;;;10446912;28;20107;-80
2023/01/06 08:25:05;;;;;;;46.90;22.40;;;3.50;99.90;;;;;;10444589;28;20029;-79
2023/01/06 08:30:07;;;;;;;49.60;23.47;;;3.60;99.90;;;;;;10444392;28;20111;-79
2023/01/06 08:35:07;;;;;;;49.57;22.23;;;3.70;99.90;;;;;;10444985;28;20053;-81
2023/01/06 08:40:11;;;;;;;39.60;17.83;;;3.80;99.90;;;;;;10445848;28;20381;-80
2023/01/06 08:45:12;;;;;;;34.80;18.50;;;3.90;99.90;;;;;;10432759;28;20036;-80
2023/01/06 08:50:13;;;;;;;38.77;20.97;;;4.00;99.90;;;;;;10442553;28;20033;-78
2023/01/06 08:55:13;;;;;;;37.37;22.47;;;4.10;99.90;;;;;;10438488;28;20029;-79
2023/01/06 09:00:14;;;;;;;39.57;21.33;;;4.20;99.90;;;;;;10442437;28;20032;-78
2023/01/06 09:05:15;;;;;;;35.97;17.23;;;4.30;99.90;;;;;;10441614;28;20589;-79
2023/01/06 09:10:17;;;;;;;27.93;15.97;;;4.30;99.90;;;;;;10442986;28;20029;-79
2023/01/06 09:15:17;;;;;;;26.63;13.97;;;4.40;99.90;;;;;;10443394;28;20119;-77
2023/01/06 09:20:18;;;;;;;35.23;17.10;;;4.50;99.90;;;;;;10443274;28;20033;-78
2023/01/06 09:25:21;;;;;;;86.27;37.83;;;4.50;99.90;;;;;;10444008;28;20037;-78
2023/01/06 09:30:24;;;;;;;115.33;44.83;;;4.60;99.90;;;;;;10443138;28;20035;-78
2023/01/06 09:35:24;;;;;;;58.27;25.10;;;4.60;99.90;;;;;;10442908;28;20068;-80
2023/01/06 09:40:37;;;;;;;38.80;21.50;;;4.70;99.90;;;;;;10442578;28;20631;-77
2023/01/06 09:45:47;;;;;;;79.73;41.90;;;4.70;99.90;;;;;;10442514;28;20021;-78
2023/01/06 09:50:52;;;;;;;86.27;58.63;;;4.90;99.90;;;;;;10442919;28;20059;-78
2023/01/06 09:55:57;;;;;;;41.75;23.15;;;4.90;99.90;;;;;;10441933;28;20043;-79
2023/01/06 10:01:02;;;;;;;55.23;25.33;;;4.90;99.90;;;;;;10429966;28;20033;-78
2023/01/06 10:06:28;;;;;;;41.30;21.63;;;4.90;99.90;;;;;;10441669;28;20753;-78
2023/01/06 10:11:55;;;;;;;24.20;12.15;;;4.90;99.90;;;;;;10442270;28;20017;-79
2023/01/06 10:17:17;;;;;;;31.53;16.47;;;4.80;99.90;;;;;;10441663;28;20041;-79
2023/01/06 10:22:44;;;;;;;32.50;16.43;;;4.80;99.90;;;;;;10441658;28;20053;-76
2023/01/06 10:27:44;;;;;;;;;;;4.90;99.90;;;;;;10442214;28;20021;-78
2023/01/06 10:32:48;;;;;;;20.17;10.03;;;4.80;99.90;;;;;;10441070;28;20288;-78
2023/01/06 10:37:50;;;;;;;24.07;13.97;;;4.80;99.90;;;;;;10441018;28;20032;-77
2023/01/06 10:43:02;;;;;;;33.27;17.27;;;4.80;99.90;;;;;;10455153;23;20061;-77
2023/01/06 10:48:05;;;;;;;30.33;15.97;;;4.90;99.90;;;;;;10429114;28;20063;-79
2023/01/06 10:53:06;;;;;;;26.90;13.90;;;5.00;99.90;;;;;;10449079;28;20041;-78
2023/01/06 10:58:36;;;;;;;25.00;13.13;;;5.00;99.90;;;;;;10449672;28;20032;-78
2023/01/06 11:03:41;;;;;;;25.07;14.40;;;5.00;99.90;;;;;;10449104;28;20032;-78
2023/01/06 11:08:42;;;;;;;33.20;19.37;;;5.10;99.90;;;;;;10448584;28;20028;-78
2023/01/06 11:13:49;;;;;;;24.43;12.50;;;5.30;99.90;;;;;;10448543;28;20044;-77
2023/01/06 11:18:52;;;;;;;27.70;17.30;;;5.50;99.90;;;;;;10447510;28;20652;-78
2023/01/06 11:24:14;;;;;;;93.80;40.43;;;5.60;99.90;;;;;;10448370;28;20037;-79
2023/01/06 11:29:41;;;;;;;87.77;33.23;;;5.70;99.90;;;;;;10448202;28;20039;-78
2023/01/06 11:34:52;;;;;;;32.00;15.30;;;5.80;99.90;;;;;;10444136;28;20048;-79
2023/01/06 11:39:53;;;;;;;188.10;70.83;;;5.80;99.90;;;;;;10447239;28;20040;-77
2023/01/06 11:44:53;;;;;;;41.73;17.20;;;5.90;99.90;;;;;;10447737;28;20663;-76
2023/01/06 11:49:57;;;;;;;57.33;23.00;;;6.10;99.90;;;;;;10446952;28;20100;-78
2023/01/06 11:55:19;;;;;;;38.83;19.10;;;6.20;99.90;;;;;;10446643;28;20396;-76
2023/01/06 12:00:46;;;;;;;54.57;24.80;;;6.20;99.90;;;;;;10445580;28;20033;-77
2023/01/06 12:06:17;;;;;;;38.20;18.50;;;6.40;99.90;;;;;;10433808;28;20074;-78
2023/01/06 12:11:26;;;;;;;80.33;34.47;;;6.40;99.90;;;;;;10445826;28;20036;-77
2023/01/06 12:16:37;;;;;;;46.23;22.87;;;6.50;99.90;;;;;;10446321;28;20358;-78
2023/01/06 12:21:40;;;;;;;63.77;27.90;;;6.50;99.90;;;;;;10446328;28;20809;-77
2023/01/06 12:26:42;;;;;;;49.03;22.63;;;6.60;99.90;;;;;;10460855;22;20057;-77
2023/01/06 12:31:54;;;;;;;58.90;25.23;;;6.60;99.90;;;;;;10444994;28;20021;-79
2023/01/06 12:37:19;;;;;;;73.23;30.33;;;6.60;99.90;;;;;;10445307;28;20044;-77
2023/01/06 12:42:34;;;;;;;61.17;27.07;;;6.70;99.90;;;;;;10444780;28;20153;-76
2023/01/06 12:47:43;;;;;;;51.97;25.03;;;6.70;99.90;;;;;;10445061;28;20035;-78
2023/01/06 12:52:51;;;;;;;70.20;42.70;;;6.70;99.90;;;;;;10431368;28;20598;-78
2023/01/06 12:58:00;;;;;;;51.63;25.43;;;6.60;99.90;;;;;;10445217;28;20103;-77
2023/01/06 13:03:03;;;;;;;40.23;18.70;;;6.50;99.90;;;;;;10443991;28;20057;-77
2023/01/06 13:08:28;;;;;;;37.67;20.00;;;6.50;99.90;;;;;;10444309;28;20104;-78
2023/01/06 13:13:57;;;;;;;84.57;43.23;;;6.40;99.90;;;;;;10443096;28;20481;-77
2023/01/06 13:19:13;;;;;;;49.17;23.33;;;6.40;99.90;;;;;;10431998;28;20032;-76
2023/01/06 13:24:33;;;;;;;42.58;22.58;;;6.30;99.90;;;;;;10443307;28;20052;-77
2023/01/06 13:29:56;;;;;;;53.97;25.97;;;6.30;99.90;;;;;;10442942;28;20061;-78
2023/01/06 13:35:18;;;;;;;42.87;21.37;;;6.30;99.90;;;;;;10442790;28;20049;-77
2023/01/06 13:40:25;;;;;;;46.93;23.77;;;6.30;99.90;;;;;;10443378;28;20032;-77
2023/01/06 13:45:42;;;;;;;37.57;19.50;;;6.20;99.90;;;;;;10443431;28;20021;-77
2023/01/06 13:50:42;;;;;;;50.87;28.40;;;6.20;99.90;;;;;;10442938;28;20547;-77
2023/01/06 13:55:43;;;;;;;57.20;28.27;;;6.20;99.90;;;;;;10442344;28;20040;-77
2023/01/06 14:01:10;;;;;;;36.33;19.20;;;6.10;99.90;;;;;;10438022;28;20021;-76
2023/01/06 14:06:31;;;;;;;34.20;16.55;;;6.10;99.90;;;;;;10431587;28;20033;-76
2023/01/06 14:11:37;;;;;;;42.07;25.53;;;6.10;99.90;;;;;;10441466;28;20039;-77
2023/01/06 14:16:41;;;;;;;27.85;14.68;;;6.00;99.90;;;;;;10439867;28;20058;-80
2023/01/06 14:21:42;;;;;;;32.23;16.50;;;6.00;99.90;;;;;;10441857;28;20024;-76
2023/01/06 14:27:05;;;;;;;38.50;19.87;;;6.00;99.90;;;;;;10447269;28;20049;-77
2023/01/06 14:32:07;;;;;;;41.63;21.90;;;6.00;99.90;;;;;;10439216;28;20158;-79
2023/01/06 14:37:16;;;;;;;129.63;105.87;;;6.00;99.90;;;;;;10447394;28;20044;-76
2023/01/06 14:42:28;;;;;;;145.17;72.63;;;6.00;99.90;;;;;;10449807;28;20048;-76
2023/01/06 14:47:33;;;;;;;107.13;53.67;;;6.10;99.90;;;;;;10448764;28;20032;-76
2023/01/06 14:52:40;;;;;;;194.53;75.10;;;6.00;99.90;;;;;;10450078;28;20729;-77
2023/01/06 14:57:40;;;;;;;137.07;51.13;;;6.00;99.90;;;;;;10465191;23;20147;-77
2023/01/06 15:02:51;;;;;;;97.97;49.03;;;6.10;99.90;;;;;;10441598;28;20059;-78
2023/01/06 15:08:03;;;;;;;62.40;33.60;;;6.00;99.90;;;;;;10458948;28;20480;-78
2023/01/06 15:13:19;;;;;;;142.27;69.50;;;6.00;99.90;;;;;;10456673;28;20079;-79
2023/01/06 15:18:19;;;;;;;90.28;41.25;;;6.00;99.90;;;;;;10445151;28;20450;-76
2023/01/06 15:23:20;;;;;;;59.77;31.70;;;6.00;99.90;;;;;;10447519;28;20116;-77
2023/01/06 15:28:32;;;;;;;124.20;73.07;;;6.00;99.90;;;;;;10445783;28;20491;-76
2023/01/06 15:33:38;;;;;;;79.47;46.50;;;6.00;99.90;;;;;;10447508;28;20029;-76
2023/01/06 15:38:40;;;;;;;83.60;46.55;;;6.00;99.90;;;;;;10447805;28;20024;-77
2023/01/06 15:43:44;;;;;;;72.27;39.93;;;5.90;99.90;;;;;;10448713;28;20032;-76
2023/01/06 15:48:46;;;;;;;83.00;49.83;;;5.80;99.90;;;;;;10450604;28;20025;-77
2023/01/06 15:53:53;;;;;;;72.30;46.87;;;5.80;99.90;;;;;;10449816;28;20120;-77
2023/01/06 15:58:56;;;;;;;55.57;32.60;;;5.90;99.90;;;;;;10449430;28;20080;-77
2023/01/06 16:04:03;;;;;;;153.57;80.90;;;5.80;99.90;;;;;;10447340;28;20127;-78
2023/01/06 16:09:19;;;;;;;171.63;87.37;;;5.80;99.90;;;;;;10441836;28;20033;-76
2023/01/06 16:14:30;;;;;;;147.23;71.70;;;5.80;99.90;;;;;;10444166;28;20507;-78
2023/01/06 16:19:32;;;;;;;97.97;49.67;;;5.90;99.90;;;;;;10446596;28;20029;-78
2023/01/06 16:24:33;;;;;;;59.53;31.73;;;5.80;99.90;;;;;;10445739;28;20472;-78
2023/01/06 16:29:36;;;;;;;65.00;33.77;;;5.80;99.90;;;;;;10447110;28;20029;-76
2023/01/06 16:34:37;;;;;;;99.70;48.93;;;5.80;99.90;;;;;;10445008;28;20037;-79
2023/01/06 16:39:37;;;;;;;77.83;40.93;;;5.90;99.90;;;;;;10442907;28;20037;-78
2023/01/06 16:44:38;;;;;;;121.63;64.23;;;5.90;99.90;;;;;;10443820;28;20035;-78
2023/01/06 16:49:38;;;;;;;109.43;58.03;;;5.90;99.90;;;;;;10443729;28;20447;-77
2023/01/06 16:54:39;;;;;;;78.07;37.07;;;5.90;99.90;;;;;;10433420;28;20044;-79
2023/01/06 16:59:39;;;;;;;87.73;44.83;;;5.90;99.90;;;;;;10441444;28;20132;-77
2023/01/06 17:04:41;;;;;;;77.70;38.00;;;5.90;99.90;;;;;;10439697;28;20118;-79
2023/01/06 17:09:42;;;;;;;325.73;234.53;;;5.80;99.90;;;;;;10439635;28;20785;-78
2023/01/06 17:14:42;;;;;;;172.93;96.40;;;5.80;99.90;;;;;;10439448;28;20041;-77
2023/01/06 17:19:43;;;;;;;79.17;40.83;;;5.80;99.90;;;;;;10439425;28;20547;-77
2023/01/06 17:24:43;;;;;;;77.37;39.83;;;5.80;99.90;;;;;;10439724;28;20085;-77
2023/01/06 17:29:44;;;;;;;104.03;47.30;;;5.80;99.90;;;;;;10439986;28;20449;-76
2023/01/06 17:34:45;;;;;;;92.93;46.30;;;5.80;99.90;;;;;;10437529;28;20178;-77
2023/01/06 17:39:46;;;;;;;122.53;57.80;;;5.90;99.90;;;;;;10437641;28;20033;-78
2023/01/06 17:44:58;;;;;;;104.23;50.23;;;5.90;99.90;;;;;;10434773;28;20033;-77
2023/01/06 17:50:00;;;;;;;95.03;45.70;;;5.90;99.90;;;;;;10438165;28;20032;-76
2023/01/06 18:00:29;;;;;;;83.30;38.47;;;6.00;99.90;;;;;;10433961;28;20512;-78
2023/01/06 18:05:32;;;;;;;79.93;40.72;;;6.10;99.90;;;;;;10439105;28;20439;-78
2023/01/06 18:10:35;;;;;;;63.27;32.20;;;6.10;99.90;;;;;;10437165;28;20645;-77
2023/01/06 18:15:36;;;;;;;76.70;36.37;;;6.20;99.90;;;;;;10435163;28;20048;-77
2023/01/06 18:20:36;;;;;;;63.33;31.73;;;6.20;99.90;;;;;;10437856;28;20021;-78
2023/01/06 18:25:37;;;;;;;75.77;35.20;;;6.30;99.90;;;;;;10437654;28;20436;-77
2023/01/06 18:30:38;;;;;;;74.03;39.23;;;6.40;99.90;;;;;;10438975;28;20771;-77
2023/01/06 18:35:39;;;;;;;66.73;33.90;;;6.40;99.90;;;;;;10437043;28;20037;-77
2023/01/06 18:40:40;;;;;;;57.10;28.77;;;6.50;99.90;;;;;;10436077;28;20093;-78
2023/01/06 18:45:41;;;;;;;55.87;28.20;;;6.60;99.90;;;;;;10435474;28;20029;-79
2023/01/06 18:50:43;;;;;;;53.10;26.50;;;6.60;99.90;;;;;;10435148;28;20025;-79
2023/01/06 18:55:52;;;;;;;74.33;33.97;;;6.70;99.90;;;;;;10435439;28;20033;-77
2023/01/06 19:00:56;;;;;;;59.77;28.63;;;6.70;99.90;;;;;;10436163;28;20094;-77
2023/01/06 19:06:14;;;;;;;67.70;36.73;;;6.80;99.90;;;;;;10438730;28;20025;-76
2023/01/06 19:11:17;;;;;;;82.63;43.13;;;6.80;99.90;;;;;;10441130;28;20029;-77
2023/01/06 19:16:34;;;;;;;69.57;32.83;;;6.80;99.90;;;;;;10439886;28;20074;-76
2023/01/06 19:21:36;;;;;;;60.27;31.67;;;6.80;99.90;;;;;;10447589;28;20065;-76
2023/01/06 19:26:40;;;;;;;75.93;39.60;;;6.80;99.90;;;;;;10447121;28;20572;-78
2023/01/06 19:31:49;;;;;;;73.93;36.83;;;6.80;99.90;;;;;;10443676;28;20033;-78
2023/01/06 19:36:57;;;;;;;129.30;55.07;;;6.90;99.90;;;;;;10441011;28;20044;-78
2023/01/06 19:42:16;;;;;;;85.67;39.83;;;6.80;99.90;;;;;;10442224;28;20044;-78
2023/01/06 19:47:23;;;;;;;81.77;37.67;;;6.80;99.90;;;;;;10442487;28;20091;-79
2023/01/06 19:52:35;;;;;;;87.73;39.70;;;6.80;99.90;;;;;;10441517;28;20079;-79
2023/01/06 19:57:38;;;;;;;95.90;47.80;;;6.80;99.90;;;;;;10443878;28;20057;-79
2023/01/06 20:02:44;;;;;;;95.77;45.60;;;6.80;99.90;;;;;;10442090;28;20518;-79
2023/01/06 20:07:45;;;;;;;104.10;52.35;;;6.80;99.90;;;;;;10443118;28;20028;-78
2023/01/06 20:12:47;;;;;;;97.37;46.97;;;6.80;99.90;;;;;;10441236;28;20037;-78
2023/01/06 20:17:47;;;;;;;99.77;48.80;;;6.80;99.90;;;;;;10459788;23;20059;-78
2023/01/06 20:22:48;;;;;;;100.23;45.07;;;6.80;99.90;;;;;;10433788;22;1053262;-79
2023/01/06 20:27:49;;;;;;;112.90;51.03;;;6.80;99.90;;;;;;10457122;28;20020;-79
2023/01/06 20:32:49;;;;;;;120.87;55.00;;;6.90;99.90;;;;;;10460917;28;20492;-78
2023/01/06 20:37:50;;;;;;;117.03;52.00;;;6.90;99.90;;;;;;10458983;28;20492;-79
2023/01/06 20:42:50;;;;;;;125.90;57.43;;;6.90;99.90;;;;;;10453095;28;20033;-79
2023/01/06 20:47:51;;;;;;;122.77;52.00;;;6.90;99.90;;;;;;10458120;28;20033;-79
2023/01/06 20:52:51;;;;;;;97.37;44.30;;;7.00;99.90;;;;;;10457732;28;20037;-78
2023/01/06 20:57:52;;;;;;;100.43;39.80;;;7.00;99.90;;;;;;10455596;28;20032;-78
2023/01/06 21:02:52;;;;;;;117.27;43.70;;;7.10;99.90;;;;;;10454677;28;20051;-79
2023/01/06 21:07:53;;;;;;;93.00;37.77;;;7.10;99.90;;;;;;10455894;28;20025;-79
2023/01/06 21:12:54;;;;;;;119.23;44.93;;;7.10;99.90;;;;;;10453695;28;20048;-78
2023/01/06 21:17:55;;;;;;;100.97;40.50;;;7.20;99.90;;;;;;10454579;28;20024;-79
2023/01/06 21:22:55;;;;;;;75.07;27.70;;;7.20;99.90;;;;;;10449093;28;20484;-79
2023/01/06 21:27:57;;;;;;;78.50;28.10;;;7.20;99.90;;;;;;10451203;28;20669;-79
2023/01/06 21:32:58;;;;;;;96.10;30.17;;;7.20;99.90;;;;;;10452252;28;20040;-78
2023/01/06 21:37:58;;;;;;;1.03;1.00;;;7.20;99.90;;;;;;10451215;28;20029;-79
2023/01/06 21:43:08;;;;;;;3.60;1.57;;;7.20;99.90;;;;;;10453645;28;20033;-79
2023/01/06 21:48:11;;;;;;;2.37;2.27;;;7.20;99.90;;;;;;10458320;28;20035;-78
2023/01/06 21:53:12;;;;;;;1.70;1.63;;;7.20;99.90;;;;;;10451626;28;20460;-79
2023/01/06 21:58:13;;;;;;;0.17;0.17;;;7.20;99.90;;;;;;10455563;28;20033;-79
2023/01/06 22:03:13;;;;;;;0.37;0.37;;;7.20;99.90;;;;;;10453752;28;20414;-79
2023/01/06 22:08:14;;;;;;;0.37;0.37;;;7.20;99.90;;;;;;10450600;28;20029;-79
2023/01/06 22:13:18;;;;;;;0.40;0.40;;;7.10;99.90;;;;;;10457584;28;20037;-78
2023/01/06 22:18:18;;;;;;;0.50;0.50;;;7.10;99.90;;;;;;10453895;28;20037;-79
2023/01/06 22:23:20;;;;;;;0.83;0.83;;;7.00;99.90;;;;;;10448353;28;20051;-79
2023/01/06 22:28:22;;;;;;;0.23;0.23;;;7.00;99.90;;;;;;10453856;28;20041;-80
2023/01/06 22:33:23;;;;;;;0.53;0.53;;;7.00;99.90;;;;;;10456375;28;20093;-78
2023/01/06 22:38:23;;;;;;;0.23;0.23;;;7.00;99.90;;;;;;10450912;28;20048;-79
2023/01/06 22:43:24;;;;;;;0.10;0.10;;;7.00;99.90;;;;;;10453471;28;20047;-79
2023/01/06 22:48:25;;;;;;;3.90;1.33;;;7.00;99.90;;;;;;10464090;28;20504;-79
2023/01/06 22:53:27;;;;;;;0.00;0.00;;;7.00;99.90;;;;;;10458544;28;20045;-80
2023/01/06 22:58:28;;;;;;;3.60;2.53;;;7.00;99.90;;;;;;10459979;28;20036;-78
2023/01/06 23:03:29;;;;;;;0.00;0.00;;;7.00;99.90;;;;;;10459486;28;20040;-79
2023/01/06 23:08:31;;;;;;;0.27;0.27;;;7.00;99.90;;;;;;10459323;28;20042;-79
2023/01/06 23:13:33;;;;;;;0.30;0.30;;;7.00;99.90;;;;;;10459987;28;20039;-78
2023/01/06 23:18:35;;;;;;;0.77;0.77;;;7.10;99.90;;;;;;10458883;28;20115;-79
2023/01/06 23:23:38;;;;;;;3.30;1.87;;;7.10;99.90;;;;;;10460605;28;20029;-80
2023/01/06 23:28:39;;;;;;;1.70;1.60;;;7.20;99.90;;;;;;10450996;28;20029;-79
2023/01/06 23:33:47;;;;;;;0.20;0.20;;;7.20;99.90;;;;;;10457380;28;20045;-79
2023/01/06 23:38:49;;;;;;;0.30;0.30;;;7.20;99.90;;;;;;10453900;28;20094;-79
2023/01/06 23:43:50;;;;;;;0.73;0.73;;;7.30;99.90;;;;;;10460006;28;20040;-79
2023/01/06 23:48:51;;;;;;;0.20;0.20;;;7.30;99.90;;;;;;10461722;28;20789;-79
2023/01/06 23:53:52;;;;;;;0.20;0.20;;;7.30;99.90;;;;;;10459514;28;20160;-79
2023/01/06 23:58:55;;;;;;;0.13;0.13;;;7.30;99.90;;;;;;10459495;28;20043;-79
